createdAt,value
2023-03-26T00:19:45.574Z,10.41
2023-03-26T00:25:34.125Z,10.47
2023-03-26T00:31:21.269Z,10.29
2023-03-26T00:37:08.924Z,10.22
2023-03-26T00:42:56.265Z,10.25
2023-03-26T00:48:45.891Z,10.23
2023-03-26T00:54:32.984Z,10.24
2023-03-26T01:00:29.559Z,10.33
2023-03-26T01:06:27.954Z,10.27
2023-03-26T01:12:18.364Z,10.29
2023-03-26T01:18:09.937Z,10.14
2023-03-26T01:23:57.973Z,10.19
2023-03-26T01:29:48.989Z,10.07
2023-03-26T01:35:45.118Z,10.06
2023-03-26T01:41:56.476Z,10.22
2023-03-26T01:47:45.726Z,10.15
2023-03-26T01:53:35.139Z,10.45
2023-03-26T01:59:31.385Z,10.45
2023-03-26T02:05:49.429Z,10.44
2023-03-26T02:11:38.393Z,10.51
2023-03-26T02:17:25.944Z,10.31
2023-03-26T02:23:12.858Z,10.09
2023-03-26T02:29:01.720Z,10.19
2023-03-26T02:34:51.425Z,10.25
2023-03-26T02:40:38.917Z,10.29
2023-03-26T02:46:26.356Z,10.06
2023-03-26T02:52:23.771Z,9.92
2023-03-26T02:58:17.363Z,10.02
2023-03-26T03:04:04.489Z,10.23
2023-03-26T03:10:02.454Z,10.31
2023-03-26T03:16:24.754Z,10.44
2023-03-26T03:22:12.054Z,10.33
2023-03-26T03:28:00.740Z,10.40
2023-03-26T03:33:47.856Z,10.29
2023-03-26T03:39:38.570Z,10.37
2023-03-26T03:45:26.149Z,10.42
2023-03-26T03:51:28.774Z,10.40
2023-03-26T03:57:18.833Z,10.30
2023-03-26T04:03:34.166Z,9.84
2023-03-26T04:09:26.741Z,9.36
2023-03-26T04:15:18.020Z,9.36
2023-03-26T04:21:07.527Z,9.40
2023-03-26T04:26:58.345Z,9.33
2023-03-26T04:32:51.839Z,9.45
2023-03-26T04:38:44.982Z,9.35
2023-03-26T04:44:35.788Z,9.29
2023-03-26T04:50:28.170Z,9.33
2023-03-26T04:56:27.597Z,9.43
2023-03-26T05:02:34.677Z,9.64
2023-03-26T05:08:22.017Z,9.63
2023-03-26T05:14:09.293Z,9.70
2023-03-26T05:19:56.324Z,9.69
2023-03-26T05:25:43.277Z,9.61
2023-03-26T05:31:39.328Z,9.61
2023-03-26T05:37:26.239Z,9.31
2023-03-26T05:43:21.368Z,9.04
2023-03-26T05:49:17.803Z,9.11
2023-03-26T05:55:08.277Z,8.63
2023-03-26T06:01:21.008Z,8.96
2023-03-26T06:07:53.725Z,8.73
2023-03-26T06:13:41.418Z,8.66
2023-03-26T06:19:32.141Z,8.33
2023-03-26T06:25:30.888Z,8.21
2023-03-26T06:31:37.908Z,8.46
2023-03-26T06:37:43.723Z,8.35
2023-03-26T06:43:33.906Z,8.33
2023-03-26T06:49:39.787Z,8.31
2023-03-26T06:55:37.232Z,8.21
2023-03-26T07:01:41.171Z,8.08
2023-03-26T07:07:47.676Z,7.93
2023-03-26T07:13:49.651Z,8.12
2023-03-26T07:19:54.929Z,7.97
2023-03-26T07:25:47.367Z,7.80
2023-03-26T07:32:04.595Z,7.80
2023-03-26T07:38:28.614Z,7.69
2023-03-26T07:44:52.709Z,7.78
2023-03-26T07:51:02.992Z,8.07
2023-03-26T07:57:21.937Z,7.91
2023-03-26T08:03:40.239Z,7.48
2023-03-26T08:10:14.200Z,7.47
2023-03-26T08:16:23.304Z,7.72
2023-03-26T08:22:29.245Z,7.93
2023-03-26T08:28:20.069Z,7.96
2023-03-26T08:34:11.459Z,7.81
2023-03-26T08:39:58.438Z,7.94
2023-03-26T08:46:15.362Z,7.97
2023-03-26T08:52:21.654Z,7.71
2023-03-26T08:58:26.977Z,7.81
2023-03-26T09:04:32.597Z,8.09
2023-03-26T09:10:44.129Z,7.97
2023-03-26T09:16:53.568Z,7.97
2023-03-26T09:22:58.442Z,8.16
2023-03-26T09:29:20.719Z,8.30
2023-03-26T09:35:14.537Z,8.18
2023-03-26T09:41:16.694Z,7.96
2023-03-26T09:47:38.263Z,8.21
2023-03-26T09:53:40.959Z,8.44
2023-03-26T09:59:52.372Z,8.40
2023-03-26T10:06:00.258Z,8.82
2023-03-26T10:12:09.839Z,9.03
2023-03-26T10:18:27.044Z,9.41
2023-03-26T10:24:53.124Z,9.56
2023-03-26T10:31:07.244Z,9.45
2023-03-26T10:37:04.053Z,9.43
2023-03-26T10:43:03.182Z,9.84
2023-03-26T10:48:53.273Z,9.75
2023-03-26T10:55:01.645Z,10.19
2023-03-26T11:00:55.180Z,9.71
2023-03-26T11:15:35.167Z,10.07
2023-03-26T11:21:36.794Z,10.48
2023-03-26T11:28:02.430Z,10.52
2023-03-26T11:33:55.571Z,10.79
2023-03-26T11:39:59.293Z,10.49
2023-03-26T11:45:51.852Z,10.70
2023-03-26T11:51:44.921Z,10.82
2023-03-26T11:57:35.149Z,10.99
2023-03-26T12:03:22.329Z,11.17
2023-03-26T12:09:20.539Z,11.51
2023-03-26T12:15:21.556Z,11.21
2023-03-26T12:21:17.673Z,10.80
2023-03-26T12:27:28.654Z,10.16
2023-03-26T12:33:28.283Z,9.55
2023-03-26T12:40:10.129Z,9.39
2023-03-26T12:45:40.820Z,9.52
2023-03-26T12:52:03.906Z,9.19
2023-03-26T12:59:08.405Z,9.31
2023-03-26T13:06:02.466Z,9.40
2023-03-26T13:11:58.384Z,9.31
2023-03-26T13:17:58.496Z,9.31
2023-03-26T13:24:03.207Z,9.27
2023-03-26T13:30:02.507Z,9.49
2023-03-26T13:36:14.293Z,9.32
2023-03-26T13:42:18.372Z,8.79
2023-03-26T13:48:16.529Z,8.61
2023-03-26T13:54:16.425Z,8.76
2023-03-26T14:00:13.823Z,8.98
2023-03-26T14:06:06.571Z,9.07
2023-03-26T14:11:55.383Z,8.97
2023-03-26T14:18:03.530Z,9.07
2023-03-26T14:24:14.391Z,9.14
2023-03-26T14:30:28.585Z,9.10
2023-03-26T14:36:18.469Z,9.17
2023-03-26T14:42:33.493Z,9.52
2023-03-26T14:48:58.076Z,9.21
2023-03-26T14:54:48.462Z,9.24
2023-03-26T15:00:50.171Z,9.17
2023-03-26T15:06:46.360Z,8.84
2023-03-26T15:12:52.741Z,8.91
2023-03-26T15:19:17.851Z,8.89
2023-03-26T15:25:55.795Z,8.95
2023-03-26T15:32:03.400Z,9.11
2023-03-26T15:38:21.040Z,9.21
2023-03-26T15:44:24.298Z,8.95
2023-03-26T15:50:35.537Z,9.13
2023-03-26T15:56:33.335Z,9.20
2023-03-26T16:02:50.580Z,8.91
2023-03-26T16:09:20.966Z,8.59
2023-03-26T16:15:07.690Z,8.89
2023-03-26T16:21:04.481Z,8.83
2023-03-26T16:26:51.679Z,8.68
2023-03-26T16:33:39.635Z,8.49
2023-03-26T16:39:42.953Z,8.60
2023-03-26T16:45:42.930Z,8.33
2023-03-26T16:51:54.691Z,8.32
2023-03-26T16:57:47.398Z,8.28
2023-03-26T17:03:45.080Z,8.33
2023-03-26T17:09:54.021Z,8.30
2023-03-26T17:15:56.014Z,8.29
2023-03-26T17:21:55.617Z,8.05
2023-03-26T17:28:12.318Z,8.11
2023-03-26T17:34:56.758Z,8.19
2023-03-26T17:40:50.789Z,8.31
2023-03-26T17:46:41.390Z,8.44
2023-03-26T17:52:56.625Z,8.25
2023-03-26T17:58:48.005Z,8.43
2023-03-26T18:04:42.240Z,8.25
2023-03-26T18:10:46.578Z,8.03
2023-03-26T18:16:42.882Z,8.17
2023-03-26T18:22:30.781Z,8.15
2023-03-26T18:28:20.793Z,8.16
2023-03-26T18:34:20.705Z,8.15
2023-03-26T18:40:19.012Z,7.88
2023-03-26T18:46:05.901Z,7.72
2023-03-26T18:51:57.227Z,7.72
2023-03-26T18:57:44.650Z,7.72
2023-03-26T19:03:35.761Z,7.66
2023-03-26T19:09:31.550Z,7.60
2023-03-26T19:15:21.090Z,7.46
2023-03-26T19:21:09.791Z,7.60
2023-03-26T19:26:59.792Z,7.72
2023-03-26T19:32:54.010Z,7.59
2023-03-26T19:38:48.912Z,7.54
2023-03-26T19:44:39.604Z,7.51
2023-03-26T19:50:33.230Z,7.54
2023-03-26T19:56:21.395Z,7.65
2023-03-26T20:02:12.816Z,7.46
2023-03-26T20:08:04.794Z,7.61
2023-03-26T20:13:55.700Z,7.41
2023-03-26T20:19:43.585Z,7.29
2023-03-26T20:25:34.004Z,7.46
2023-03-26T20:31:25.218Z,7.37
2023-03-26T20:37:14.938Z,7.33
2023-03-26T20:43:02.128Z,7.21
2023-03-26T20:48:49.685Z,7.31
2023-03-26T20:54:39.211Z,7.16
2023-03-26T21:00:26.187Z,6.99
2023-03-26T21:06:19.965Z,7.13
2023-03-26T21:20:00.515Z,6.94
2023-03-26T21:25:56.428Z,6.99
2023-03-26T21:32:20.583Z,7.13
2023-03-26T21:38:36.049Z,7.05
2023-03-26T21:44:45.324Z,7.08
2023-03-26T21:50:38.741Z,7.13
2023-03-26T21:57:20.454Z,7.13
2023-03-26T22:03:41.530Z,7.14
2023-03-26T22:15:23.690Z,6.97
2023-03-26T22:21:12.826Z,6.86
2023-03-26T22:26:59.609Z,7.21
2023-03-26T22:32:47.833Z,6.87
2023-03-26T22:46:33.480Z,6.92
2023-03-26T22:52:20.278Z,6.78
2023-03-26T22:58:08.178Z,6.91
2023-03-26T23:03:55.560Z,6.63
2023-03-26T23:09:46.928Z,6.62
2023-03-26T23:15:33.920Z,6.69
2023-03-26T23:21:22.129Z,6.68
2023-03-26T23:27:09.035Z,6.81
2023-03-26T23:32:57.367Z,6.86
2023-03-26T23:38:51.360Z,6.60
2023-03-26T23:44:41.043Z,6.77
2023-03-26T23:50:32.504Z,6.90
2023-03-26T23:56:21.438Z,6.85
